sensor_id;sensor_type;location;lat;lon;timestamp;P1;durP1;ratioP1;P2;durP2;ratioP2
1935;SDS011;969;49.892;10.896;2022-08-01T00:02:23;3.30;;;3.10;;
1935;SDS011;969;49.892;10.896;2022-08-01T00:04:53;3.50;;;3.00;;
1935;SDS011;969;49.892;10.896;2022-08-01T00:07:21;3.20;;;2.90;;
1935;SDS011;969;49.892;10.896;2022-08-01T00:09:57;3.47;;;3.17;;
1935;SDS011;969;49.892;10.896;2022-08-01T00:12:24;4.40;;;2.70;;
1935;SDS011;969;49.892;10.896;2022-08-01T00:14:50;3.40;;;3.10;;
1935;SDS011;969;49.892;10.896;2022-08-01T00:17:17;3.07;;;2.80;;
1935;SDS011;969;49.892;10.896;2022-08-01T00:19:43;3.60;;;3.30;;
1935;SDS011;969;49.892;10.896;2022-08-01T00:22:08;3.20;;;3.00;;
1935;SDS011;969;49.892;10.896;2022-08-01T00:24:34;3.03;;;2.83;;
1935;SDS011;969;49.892;10.896;2022-08-01T00:27:00;3.43;;;3.13;;
1935;SDS011;969;49.892;10.896;2022-08-01T00:29:26;3.40;;;3.10;;
1935;SDS011;969;49.892;10.896;2022-08-01T00:31:52;3.83;;;3.53;;
1935;SDS011;969;49.892;10.896;2022-08-01T00:34:18;3.27;;;2.97;;
1935;SDS011;969;49.892;10.896;2022-08-01T00:36:44;3.20;;;2.90;;
1935;SDS011;969;49.892;10.896;2022-08-01T00:39:11;3.27;;;3.00;;
1935;SDS011;969;49.892;10.896;2022-08-01T00:41:37;3.43;;;3.13;;
1935;SDS011;969;49.892;10.896;2022-08-01T00:44:04;3.57;;;3.27;;
1935;SDS011;969;49.892;10.896;2022-08-01T00:46:31;3.17;;;2.87;;
1935;SDS011;969;49.892;10.896;2022-08-01T00:48:57;3.67;;;3.37;;
1935;SDS011;969;49.892;10.896;2022-08-01T00:51:24;3.23;;;2.93;;
1935;SDS011;969;49.892;10.896;2022-08-01T00:53:50;3.23;;;3.03;;
1935;SDS011;969;49.892;10.896;2022-08-01T00:56:18;3.10;;;2.90;;
1935;SDS011;969;49.892;10.896;2022-08-01T00:58:46;3.47;;;3.17;;
1935;SDS011;969;49.892;10.896;2022-08-01T01:01:12;3.50;;;3.20;;
1935;SDS011;969;49.892;10.896;2022-08-01T01:03:38;3.30;;;3.10;;
1935;SDS011;969;49.892;10.896;2022-08-01T01:11:36;3.10;;;2.80;;
1935;SDS011;969;49.892;10.896;2022-08-01T01:14:23;3.53;;;3.23;;
1935;SDS011;969;49.892;10.896;2022-08-01T01:16:55;4.80;;;3.00;;
1935;SDS011;969;49.892;10.896;2022-08-01T01:19:24;3.40;;;3.10;;
1935;SDS011;969;49.892;10.896;2022-08-01T01:27:36;3.70;;;3.40;;
1935;SDS011;969;49.892;10.896;2022-08-01T01:30:01;2.80;;;2.60;;
1935;SDS011;969;49.892;10.896;2022-08-01T01:32:30;4.13;;;3.73;;
1935;SDS011;969;49.892;10.896;2022-08-01T01:35:00;3.77;;;3.47;;
1935;SDS011;969;49.892;10.896;2022-08-01T01:37:30;4.00;;;3.50;;
1935;SDS011;969;49.892;10.896;2022-08-01T01:39:58;3.63;;;3.30;;
1935;SDS011;969;49.892;10.896;2022-08-01T01:42:25;3.63;;;3.33;;
1935;SDS011;969;49.892;10.896;2022-08-01T01:44:52;3.30;;;3.00;;
1935;SDS011;969;49.892;10.896;2022-08-01T01:47:19;3.60;;;3.30;;
1935;SDS011;969;49.892;10.896;2022-08-01T01:49:47;3.93;;;3.60;;
1935;SDS011;969;49.892;10.896;2022-08-01T01:52:16;3.27;;;2.97;;
1935;SDS011;969;49.892;10.896;2022-08-01T01:54:48;3.20;;;2.90;;
1935;SDS011;969;49.892;10.896;2022-08-01T01:57:16;3.67;;;3.37;;
1935;SDS011;969;49.892;10.896;2022-08-01T01:59:44;3.50;;;3.20;;
1935;SDS011;969;49.892;10.896;2022-08-01T02:02:12;3.83;;;3.17;;
1935;SDS011;969;49.892;10.896;2022-08-01T02:04:40;2.90;;;2.70;;
1935;SDS011;969;49.892;10.896;2022-08-01T02:07:12;4.67;;;3.80;;
1935;SDS011;969;49.892;10.896;2022-08-01T02:09:46;3.23;;;2.93;;
1935;SDS011;969;49.892;10.896;2022-08-01T02:12:14;3.37;;;3.17;;
1935;SDS011;969;49.892;10.896;2022-08-01T02:14:43;3.57;;;3.27;;
1935;SDS011;969;49.892;10.896;2022-08-01T02:17:12;3.80;;;3.20;;
1935;SDS011;969;49.892;10.896;2022-08-01T02:19:43;3.50;;;3.20;;
1935;SDS011;969;49.892;10.896;2022-08-01T02:22:11;3.20;;;3.00;;
1935;SDS011;969;49.892;10.896;2022-08-01T02:24:45;3.37;;;3.17;;
1935;SDS011;969;49.892;10.896;2022-08-01T02:27:33;4.90;;;3.50;;
1935;SDS011;969;49.892;10.896;2022-08-01T02:30:21;3.27;;;2.97;;
1935;SDS011;969;49.892;10.896;2022-08-01T02:32:51;4.20;;;3.10;;
1935;SDS011;969;49.892;10.896;2022-08-01T02:35:34;3.67;;;3.13;;
1935;SDS011;969;49.892;10.896;2022-08-01T02:38:03;3.03;;;2.83;;
1935;SDS011;969;49.892;10.896;2022-08-01T02:40:33;3.47;;;2.90;;
1935;SDS011;969;49.892;10.896;2022-08-01T02:43:05;3.07;;;2.83;;
1935;SDS011;969;49.892;10.896;2022-08-01T02:45:33;4.27;;;3.50;;
1935;SDS011;969;49.892;10.896;2022-08-01T02:48:08;4.50;;;3.63;;
1935;SDS011;969;49.892;10.896;2022-08-01T02:50:37;4.20;;;3.87;;
1935;SDS011;969;49.892;10.896;2022-08-01T02:53:06;2.83;;;2.63;;
1935;SDS011;969;49.892;10.896;2022-08-01T02:55:36;3.57;;;3.27;;
1935;SDS011;969;49.892;10.896;2022-08-01T02:58:06;3.43;;;3.13;;
1935;SDS011;969;49.892;10.896;2022-08-01T03:00:34;4.23;;;3.33;;
1935;SDS011;969;49.892;10.896;2022-08-01T03:03:02;3.53;;;2.87;;
1935;SDS011;969;49.892;10.896;2022-08-01T03:05:32;3.60;;;3.30;;
1935;SDS011;969;49.892;10.896;2022-08-01T03:08:00;3.30;;;3.00;;
1935;SDS011;969;49.892;10.896;2022-08-01T03:10:27;5.40;;;3.03;;
1935;SDS011;969;49.892;10.896;2022-08-01T03:12:55;2.80;;;2.60;;
1935;SDS011;969;49.892;10.896;2022-08-01T03:15:24;3.77;;;3.47;;
1935;SDS011;969;49.892;10.896;2022-08-01T03:17:53;3.50;;;3.20;;
1935;SDS011;969;49.892;10.896;2022-08-01T03:20:21;3.37;;;3.17;;
1935;SDS011;969;49.892;10.896;2022-08-01T03:22:49;3.80;;;3.50;;
1935;SDS011;969;49.892;10.896;2022-08-01T03:25:23;3.43;;;3.20;;
1935;SDS011;969;49.892;10.896;2022-08-01T03:27:52;3.23;;;3.03;;
1935;SDS011;969;49.892;10.896;2022-08-01T03:30:22;4.37;;;3.97;;
1935;SDS011;969;49.892;10.896;2022-08-01T03:32:49;3.90;;;3.60;;
1935;SDS011;969;49.892;10.896;2022-08-01T03:35:15;3.77;;;3.50;;
1935;SDS011;969;49.892;10.896;2022-08-01T03:37:47;3.53;;;3.23;;
1935;SDS011;969;49.892;10.896;2022-08-01T03:40:28;3.53;;;3.23;;
1935;SDS011;969;49.892;10.896;2022-08-01T03:42:58;3.57;;;3.27;;
1935;SDS011;969;49.892;10.896;2022-08-01T03:45:32;3.60;;;3.30;;
1935;SDS011;969;49.892;10.896;2022-08-01T03:48:03;3.47;;;3.20;;
1935;SDS011;969;49.892;10.896;2022-08-01T03:50:34;3.43;;;3.13;;
1935;SDS011;969;49.892;10.896;2022-08-01T03:53:04;3.37;;;3.17;;
1935;SDS011;969;49.892;10.896;2022-08-01T03:55:34;3.47;;;3.20;;
1935;SDS011;969;49.892;10.896;2022-08-01T03:58:03;3.53;;;3.30;;
1935;SDS011;969;49.892;10.896;2022-08-01T04:00:30;3.23;;;3.03;;
1935;SDS011;969;49.892;10.896;2022-08-01T04:02:56;3.20;;;2.93;;
1935;SDS011;969;49.892;10.896;2022-08-01T04:05:23;3.53;;;3.33;;
1935;SDS011;969;49.892;10.896;2022-08-01T04:07:51;4.20;;;3.77;;
1935;SDS011;969;49.892;10.896;2022-08-01T04:10:21;4.20;;;3.90;;
1935;SDS011;969;49.892;10.896;2022-08-01T04:12:47;3.50;;;3.30;;
1935;SDS011;969;49.892;10.896;2022-08-01T04:15:14;3.10;;;2.90;;
1935;SDS011;969;49.892;10.896;2022-08-01T04:17:39;4.00;;;3.70;;
1935;SDS011;969;49.892;10.896;2022-08-01T04:20:06;3.30;;;3.07;;
1935;SDS011;969;49.892;10.896;2022-08-01T04:22:32;3.87;;;3.57;;
1935;SDS011;969;49.892;10.896;2022-08-01T04:24:58;3.70;;;3.20;;
1935;SDS011;969;49.892;10.896;2022-08-01T04:27:32;3.80;;;3.50;;
1935;SDS011;969;49.892;10.896;2022-08-01T04:30:02;3.40;;;3.10;;
1935;SDS011;969;49.892;10.896;2022-08-01T04:32:30;3.53;;;3.23;;
1935;SDS011;969;49.892;10.896;2022-08-01T04:35:04;3.80;;;3.50;;
1935;SDS011;969;49.892;10.896;2022-08-01T04:37:35;3.67;;;3.40;;
1935;SDS011;969;49.892;10.896;2022-08-01T04:40:05;3.70;;;3.40;;
1935;SDS011;969;49.892;10.896;2022-08-01T04:42:33;3.90;;;3.50;;
1935;SDS011;969;49.892;10.896;2022-08-01T04:44:59;4.00;;;3.60;;
1935;SDS011;969;49.892;10.896;2022-08-01T04:47:26;3.67;;;3.20;;
1935;SDS011;969;49.892;10.896;2022-08-01T04:49:53;3.43;;;3.13;;
1935;SDS011;969;49.892;10.896;2022-08-01T04:52:21;3.53;;;3.30;;
1935;SDS011;969;49.892;10.896;2022-08-01T04:54:47;3.50;;;3.27;;
1935;SDS011;969;49.892;10.896;2022-08-01T04:57:14;3.70;;;3.40;;
1935;SDS011;969;49.892;10.896;2022-08-01T04:59:42;3.53;;;3.23;;
1935;SDS011;969;49.892;10.896;2022-08-01T05:02:13;5.50;;;3.47;;
1935;SDS011;969;49.892;10.896;2022-08-01T05:04:43;4.27;;;3.60;;
1935;SDS011;969;49.892;10.896;2022-08-01T05:07:10;3.80;;;3.50;;
1935;SDS011;969;49.892;10.896;2022-08-01T05:09:37;4.03;;;3.73;;
1935;SDS011;969;49.892;10.896;2022-08-01T05:12:06;3.53;;;3.23;;
1935;SDS011;969;49.892;10.896;2022-08-01T05:14:36;4.30;;;3.63;;
1935;SDS011;969;49.892;10.896;2022-08-01T05:17:03;3.90;;;3.60;;
1935;SDS011;969;49.892;10.896;2022-08-01T05:19:31;4.67;;;4.30;;
1935;SDS011;969;49.892;10.896;2022-08-01T05:22:04;4.03;;;3.70;;
1935;SDS011;969;49.892;10.896;2022-08-01T05:24:33;4.07;;;3.67;;
1935;SDS011;969;49.892;10.896;2022-08-01T05:27:01;3.80;;;3.50;;
1935;SDS011;969;49.892;10.896;2022-08-01T05:29:28;3.63;;;3.33;;
1935;SDS011;969;49.892;10.896;2022-08-01T05:31:57;3.60;;;3.30;;
1935;SDS011;969;49.892;10.896;2022-08-01T05:34:24;3.90;;;3.60;;
1935;SDS011;969;49.892;10.896;2022-08-01T05:36:50;4.03;;;3.63;;
1935;SDS011;969;49.892;10.896;2022-08-01T05:39:20;3.70;;;3.43;;
1935;SDS011;969;49.892;10.896;2022-08-01T05:41:46;3.40;;;3.10;;
1935;SDS011;969;49.892;10.896;2022-08-01T05:44:12;3.43;;;3.23;;
1935;SDS011;969;49.892;10.896;2022-08-01T05:46:38;4.00;;;3.70;;
1935;SDS011;969;49.892;10.896;2022-08-01T05:49:04;3.63;;;3.33;;
1935;SDS011;969;49.892;10.896;2022-08-01T05:51:30;3.70;;;3.40;;
1935;SDS011;969;49.892;10.896;2022-08-01T05:53:57;3.93;;;3.60;;
1935;SDS011;969;49.892;10.896;2022-08-01T05:56:24;3.77;;;3.40;;
1935;SDS011;969;49.892;10.896;2022-08-01T05:58:55;4.10;;;3.80;;
1935;SDS011;969;49.892;10.896;2022-08-01T06:01:24;3.60;;;3.30;;
1935;SDS011;969;49.892;10.896;2022-08-01T06:03:51;4.07;;;3.73;;
1935;SDS011;969;49.892;10.896;2022-08-01T06:06:19;3.90;;;3.60;;
1935;SDS011;969;49.892;10.896;2022-08-01T06:08:46;4.23;;;3.83;;
1935;SDS011;969;49.892;10.896;2022-08-01T06:11:14;4.20;;;3.47;;
1935;SDS011;969;49.892;10.896;2022-08-01T06:13:40;4.40;;;3.40;;
1935;SDS011;969;49.892;10.896;2022-08-01T06:16:06;5.10;;;3.83;;
1935;SDS011;969;49.892;10.896;2022-08-01T06:18:32;3.90;;;3.60;;
1935;SDS011;969;49.892;10.896;2022-08-01T06:21:00;3.83;;;3.60;;
1935;SDS011;969;49.892;10.896;2022-08-01T06:23:26;4.03;;;3.73;;
1935;SDS011;969;49.892;10.896;2022-08-01T06:25:57;3.73;;;3.43;;
1935;SDS011;969;49.892;10.896;2022-08-01T06:28:23;3.77;;;3.47;;
1935;SDS011;969;49.892;10.896;2022-08-01T06:30:49;4.07;;;3.67;;
1935;SDS011;969;49.892;10.896;2022-08-01T06:33:16;4.23;;;3.93;;
1935;SDS011;969;49.892;10.896;2022-08-01T06:35:42;4.23;;;3.83;;
1935;SDS011;969;49.892;10.896;2022-08-01T06:38:08;4.10;;;3.80;;
1935;SDS011;969;49.892;10.896;2022-08-01T06:40:34;4.20;;;3.80;;
1935;SDS011;969;49.892;10.896;2022-08-01T06:43:03;4.00;;;3.70;;
1935;SDS011;969;49.892;10.896;2022-08-01T06:45:29;3.70;;;3.40;;
1935;SDS011;969;49.892;10.896;2022-08-01T06:48:01;4.83;;;3.30;;
1935;SDS011;969;49.892;10.896;2022-08-01T06:50:34;3.20;;;3.00;;
1935;SDS011;969;49.892;10.896;2022-08-01T06:53:06;3.83;;;3.50;;
1935;SDS011;969;49.892;10.896;2022-08-01T06:55:34;4.40;;;3.40;;
1935;SDS011;969;49.892;10.896;2022-08-01T06:58:01;3.90;;;3.47;;
1935;SDS011;969;49.892;10.896;2022-08-01T07:00:26;3.50;;;3.30;;
1935;SDS011;969;49.892;10.896;2022-08-01T07:06:03;4.93;;;4.53;;
1935;SDS011;969;49.892;10.896;2022-08-01T07:08:30;3.80;;;3.33;;
1935;SDS011;969;49.892;10.896;2022-08-01T07:11:04;6.03;;;3.70;;
1935;SDS011;969;49.892;10.896;2022-08-01T07:13:30;3.83;;;3.53;;
1935;SDS011;969;49.892;10.896;2022-08-01T07:15:57;3.93;;;3.63;;
1935;SDS011;969;49.892;10.896;2022-08-01T07:18:23;3.50;;;3.20;;
1935;SDS011;969;49.892;10.896;2022-08-01T07:20:54;3.90;;;3.60;;
1935;SDS011;969;49.892;10.896;2022-08-01T07:23:21;3.30;;;3.00;;
1935;SDS011;969;49.892;10.896;2022-08-01T07:25:47;4.00;;;3.40;;
1935;SDS011;969;49.892;10.896;2022-08-01T07:28:17;3.10;;;2.87;;
1935;SDS011;969;49.892;10.896;2022-08-01T07:30:44;3.00;;;2.80;;
1935;SDS011;969;49.892;10.896;2022-08-01T07:33:10;3.67;;;3.37;;
1935;SDS011;969;49.892;10.896;2022-08-01T07:35:37;3.40;;;3.10;;
1935;SDS011;969;49.892;10.896;2022-08-01T07:38:05;3.57;;;3.13;;
1935;SDS011;969;49.892;10.896;2022-08-01T07:40:35;3.60;;;3.30;;
1935;SDS011;969;49.892;10.896;2022-08-01T07:43:07;3.00;;;2.80;;
1935;SDS011;969;49.892;10.896;2022-08-01T07:45:37;3.90;;;3.17;;
1935;SDS011;969;49.892;10.896;2022-08-01T07:48:10;5.17;;;2.90;;
1935;SDS011;969;49.892;10.896;2022-08-01T07:53:33;3.47;;;3.17;;
1935;SDS011;969;49.892;10.896;2022-08-01T07:56:03;3.03;;;2.73;;
1935;SDS011;969;49.892;10.896;2022-08-01T07:58:32;3.80;;;3.00;;
1935;SDS011;969;49.892;10.896;2022-08-01T08:01:04;3.40;;;3.10;;
1935;SDS011;969;49.892;10.896;2022-08-01T08:03:52;3.60;;;3.00;;
1935;SDS011;969;49.892;10.896;2022-08-01T08:06:30;3.33;;;2.63;;
1935;SDS011;969;49.892;10.896;2022-08-01T08:09:03;3.30;;;3.00;;
1935;SDS011;969;49.892;10.896;2022-08-01T09:26:41;2.77;;;2.57;;
1935;SDS011;969;49.892;10.896;2022-08-01T09:29:08;3.27;;;2.97;;
1935;SDS011;969;49.892;10.896;2022-08-01T09:31:44;3.53;;;2.43;;
1935;SDS011;969;49.892;10.896;2022-08-01T09:34:24;6.07;;;2.50;;
1935;SDS011;969;49.892;10.896;2022-08-01T09:36:58;2.70;;;2.50;;
1935;SDS011;969;49.892;10.896;2022-08-01T09:39:37;3.10;;;2.80;;
1935;SDS011;969;49.892;10.896;2022-08-01T09:45:32;4.40;;;2.93;;
1935;SDS011;969;49.892;10.896;2022-08-01T09:48:08;2.60;;;2.40;;
1935;SDS011;969;49.892;10.896;2022-08-01T09:50:40;4.73;;;2.90;;
1935;SDS011;969;49.892;10.896;2022-08-01T09:53:18;3.13;;;2.70;;
1935;SDS011;969;49.892;10.896;2022-08-01T09:55:52;3.23;;;2.93;;
1935;SDS011;969;49.892;10.896;2022-08-01T09:58:24;3.53;;;2.53;;
1935;SDS011;969;49.892;10.896;2022-08-01T10:01:03;2.90;;;2.60;;
1935;SDS011;969;49.892;10.896;2022-08-01T10:03:32;2.37;;;2.17;;
1935;SDS011;969;49.892;10.896;2022-08-01T10:06:10;3.10;;;2.90;;
1935;SDS011;969;49.892;10.896;2022-08-01T10:09:05;2.30;;;2.10;;
1935;SDS011;969;49.892;10.896;2022-08-01T10:11:34;3.33;;;3.03;;
1935;SDS011;969;49.892;10.896;2022-08-01T10:14:06;2.53;;;2.33;;
1935;SDS011;969;49.892;10.896;2022-08-01T10:16:37;4.60;;;2.40;;
1935;SDS011;969;49.892;10.896;2022-08-01T10:19:07;3.83;;;2.40;;
1935;SDS011;969;49.892;10.896;2022-08-01T10:21:33;2.60;;;2.37;;
1935;SDS011;969;49.892;10.896;2022-08-01T10:24:02;3.07;;;2.77;;
1935;SDS011;969;49.892;10.896;2022-08-01T10:26:31;3.07;;;2.70;;
1935;SDS011;969;49.892;10.896;2022-08-01T10:29:02;3.00;;;2.50;;
1935;SDS011;969;49.892;10.896;2022-08-01T10:31:42;3.60;;;2.40;;
1935;SDS011;969;49.892;10.896;2022-08-01T10:34:09;3.33;;;2.43;;
1935;SDS011;969;49.892;10.896;2022-08-01T10:36:37;3.17;;;2.40;;
1935;SDS011;969;49.892;10.896;2022-08-01T10:39:05;2.77;;;2.57;;
1935;SDS011;969;49.892;10.896;2022-08-01T10:41:42;3.60;;;3.30;;
1935;SDS011;969;49.892;10.896;2022-08-01T10:44:13;8.33;;;3.30;;
1935;SDS011;969;49.892;10.896;2022-08-01T10:46:45;4.70;;;2.70;;
1935;SDS011;969;49.892;10.896;2022-08-01T10:49:19;2.63;;;2.43;;
1935;SDS011;969;49.892;10.896;2022-08-01T10:51:57;3.63;;;3.20;;
1935;SDS011;969;49.892;10.896;2022-08-01T10:54:26;3.33;;;2.43;;
1935;SDS011;969;49.892;10.896;2022-08-01T10:56:55;2.80;;;2.60;;
1935;SDS011;969;49.892;10.896;2022-08-01T10:59:29;6.03;;;3.80;;
1935;SDS011;969;49.892;10.896;2022-08-01T11:04:33;3.50;;;3.00;;
1935;SDS011;969;49.892;10.896;2022-08-01T11:07:13;3.00;;;2.70;;
1935;SDS011;969;49.892;10.896;2022-08-01T11:09:49;3.40;;;2.80;;
1935;SDS011;969;49.892;10.896;2022-08-01T11:12:44;4.83;;;3.33;;
1935;SDS011;969;49.892;10.896;2022-08-01T11:17:47;4.87;;;3.17;;
1935;SDS011;969;49.892;10.896;2022-08-01T11:20:21;6.27;;;3.73;;
1935;SDS011;969;49.892;10.896;2022-08-01T11:25:27;4.07;;;2.97;;
1935;SDS011;969;49.892;10.896;2022-08-01T11:28:17;7.73;;;3.33;;
1935;SDS011;969;49.892;10.896;2022-08-01T11:30:48;4.00;;;3.27;;
1935;SDS011;969;49.892;10.896;2022-08-01T11:38:44;5.70;;;3.70;;
1935;SDS011;969;49.892;10.896;2022-08-01T11:43:59;4.30;;;3.90;;
1935;SDS011;969;49.892;10.896;2022-08-01T11:53:03;4.47;;;3.00;;
1935;SDS011;969;49.892;10.896;2022-08-01T11:55:32;4.63;;;2.87;;
1935;SDS011;969;49.892;10.896;2022-08-01T11:58:03;4.00;;;2.87;;
1935;SDS011;969;49.892;10.896;2022-08-01T12:00:30;3.50;;;3.20;;
1935;SDS011;969;49.892;10.896;2022-08-01T12:03:01;2.87;;;2.67;;
1935;SDS011;969;49.892;10.896;2022-08-01T12:05:32;3.73;;;3.43;;
1935;SDS011;969;49.892;10.896;2022-08-01T12:08:11;3.20;;;2.87;;
1935;SDS011;969;49.892;10.896;2022-08-01T12:10:56;2.97;;;2.67;;
1935;SDS011;969;49.892;10.896;2022-08-01T12:13:23;4.10;;;3.40;;
1935;SDS011;969;49.892;10.896;2022-08-01T12:15:52;3.10;;;2.80;;
1935;SDS011;969;49.892;10.896;2022-08-01T12:18:19;4.33;;;3.30;;
1935;SDS011;969;49.892;10.896;2022-08-01T12:20:48;5.00;;;3.40;;
1935;SDS011;969;49.892;10.896;2022-08-01T12:23:17;5.87;;;3.30;;
1935;SDS011;969;49.892;10.896;2022-08-01T12:25:43;4.20;;;3.20;;
1935;SDS011;969;49.892;10.896;2022-08-01T12:28:16;4.83;;;3.03;;
1935;SDS011;969;49.892;10.896;2022-08-01T12:30:47;5.70;;;3.30;;
1935;SDS011;969;49.892;10.896;2022-08-01T12:33:23;6.90;;;2.73;;
1935;SDS011;969;49.892;10.896;2022-08-01T12:39:15;2.53;;;2.33;;
1935;SDS011;969;49.892;10.896;2022-08-01T12:41:49;4.43;;;2.63;;
1935;SDS011;969;49.892;10.896;2022-08-01T12:44:20;3.57;;;2.73;;
1935;SDS011;969;49.892;10.896;2022-08-01T12:46:51;3.80;;;2.30;;
1935;SDS011;969;49.892;10.896;2022-08-01T12:49:20;2.80;;;2.47;;
1935;SDS011;969;49.892;10.896;2022-08-01T12:57:34;3.17;;;2.87;;
1935;SDS011;969;49.892;10.896;2022-08-01T13:00:19;2.70;;;2.37;;
1935;SDS011;969;49.892;10.896;2022-08-01T13:05:52;2.50;;;2.30;;
1935;SDS011;969;49.892;10.896;2022-08-01T13:11:11;3.20;;;2.90;;
1935;SDS011;969;49.892;10.896;2022-08-01T13:16:27;2.87;;;2.47;;
1935;SDS011;969;49.892;10.896;2022-08-01T13:19:06;2.63;;;2.37;;
1935;SDS011;969;49.892;10.896;2022-08-01T13:21:35;3.23;;;2.23;;
1935;SDS011;969;49.892;10.896;2022-08-01T13:24:27;2.40;;;2.10;;
1935;SDS011;969;49.892;10.896;2022-08-01T13:26:58;4.00;;;2.50;;
1935;SDS011;969;49.892;10.896;2022-08-01T13:29:29;3.83;;;2.70;;
1935;SDS011;969;49.892;10.896;2022-08-01T13:34:43;2.97;;;2.53;;
1935;SDS011;969;49.892;10.896;2022-08-01T13:37:10;3.47;;;2.50;;
1935;SDS011;969;49.892;10.896;2022-08-01T13:39:38;2.60;;;2.40;;
1935;SDS011;969;49.892;10.896;2022-08-01T13:42:11;3.30;;;3.00;;
1935;SDS011;969;49.892;10.896;2022-08-01T13:44:57;3.40;;;2.63;;
1935;SDS011;969;49.892;10.896;2022-08-01T13:47:25;4.73;;;2.33;;
1935;SDS011;969;49.892;10.896;2022-08-01T13:50:07;2.73;;;2.10;;
1935;SDS011;969;49.892;10.896;2022-08-01T14:07:03;2.50;;;2.30;;
1935;SDS011;969;49.892;10.896;2022-08-01T14:12:31;2.83;;;2.23;;
1935;SDS011;969;49.892;10.896;2022-08-01T14:15:02;2.40;;;2.20;;
1935;SDS011;969;49.892;10.896;2022-08-01T14:17:30;2.13;;;1.90;;
1935;SDS011;969;49.892;10.896;2022-08-01T14:19:59;2.40;;;2.03;;
1935;SDS011;969;49.892;10.896;2022-08-01T14:22:31;2.30;;;2.10;;
1935;SDS011;969;49.892;10.896;2022-08-01T14:25:04;2.40;;;2.20;;
1935;SDS011;969;49.892;10.896;2022-08-01T14:27:45;2.83;;;2.33;;
1935;SDS011;969;49.892;10.896;2022-08-01T14:30:15;2.47;;;2.23;;
1935;SDS011;969;49.892;10.896;2022-08-01T14:32:53;2.73;;;2.53;;
1935;SDS011;969;49.892;10.896;2022-08-01T14:35:40;2.43;;;1.93;;
1935;SDS011;969;49.892;10.896;2022-08-01T14:38:25;2.83;;;2.30;;
1935;SDS011;969;49.892;10.896;2022-08-01T14:40:59;2.37;;;2.17;;
1935;SDS011;969;49.892;10.896;2022-08-01T14:46:23;3.10;;;2.37;;
1935;SDS011;969;49.892;10.896;2022-08-01T14:48:54;2.40;;;2.00;;
1935;SDS011;969;49.892;10.896;2022-08-01T14:51:20;2.50;;;2.30;;
1935;SDS011;969;49.892;10.896;2022-08-01T14:53:46;2.00;;;1.87;;
1935;SDS011;969;49.892;10.896;2022-08-01T14:56:12;2.50;;;2.30;;
1935;SDS011;969;49.892;10.896;2022-08-01T14:58:44;3.03;;;2.73;;
1935;SDS011;969;49.892;10.896;2022-08-01T15:01:11;2.40;;;2.20;;
1935;SDS011;969;49.892;10.896;2022-08-01T15:03:51;2.40;;;2.20;;
1935;SDS011;969;49.892;10.896;2022-08-01T15:06:31;3.20;;;2.70;;
1935;SDS011;969;49.892;10.896;2022-08-01T15:09:01;4.60;;;1.97;;
1935;SDS011;969;49.892;10.896;2022-08-01T15:11:36;2.67;;;2.27;;
1935;SDS011;969;49.892;10.896;2022-08-01T15:14:03;2.30;;;2.10;;
1935;SDS011;969;49.892;10.896;2022-08-01T15:16:55;1.90;;;1.80;;
1935;SDS011;969;49.892;10.896;2022-08-01T15:19:23;2.50;;;2.30;;
1935;SDS011;969;49.892;10.896;2022-08-01T15:21:49;3.43;;;2.47;;
1935;SDS011;969;49.892;10.896;2022-08-01T15:24:20;2.50;;;2.10;;
1935;SDS011;969;49.892;10.896;2022-08-01T15:30:59;2.10;;;1.80;;
1935;SDS011;969;49.892;10.896;2022-08-01T15:33:27;2.37;;;2.10;;
1935;SDS011;969;49.892;10.896;2022-08-01T15:35:57;3.60;;;2.47;;
1935;SDS011;969;49.892;10.896;2022-08-01T15:38:36;3.03;;;2.27;;
1935;SDS011;969;49.892;10.896;2022-08-01T15:41:05;2.37;;;2.17;;
1935;SDS011;969;49.892;10.896;2022-08-01T15:43:48;2.40;;;2.20;;
1935;SDS011;969;49.892;10.896;2022-08-01T15:46:20;2.60;;;2.40;;
1935;SDS011;969;49.892;10.896;2022-08-01T15:48:57;2.33;;;1.90;;
1935;SDS011;969;49.892;10.896;2022-08-01T15:51:49;2.40;;;2.20;;
1935;SDS011;969;49.892;10.896;2022-08-01T15:54:33;2.30;;;2.10;;
1935;SDS011;969;49.892;10.896;2022-08-01T15:57:06;1.93;;;1.80;;
1935;SDS011;969;49.892;10.896;2022-08-01T15:59:35;2.50;;;2.07;;
1935;SDS011;969;49.892;10.896;2022-08-01T16:02:12;2.40;;;2.10;;
1935;SDS011;969;49.892;10.896;2022-08-01T16:14:23;4.03;;;2.37;;
1935;SDS011;969;49.892;10.896;2022-08-01T16:16:52;3.10;;;2.57;;
1935;SDS011;969;49.892;10.896;2022-08-01T16:19:33;2.20;;;2.00;;
1935;SDS011;969;49.892;10.896;2022-08-01T16:22:21;2.30;;;2.10;;
1935;SDS011;969;49.892;10.896;2022-08-01T16:25:23;2.13;;;1.93;;
1935;SDS011;969;49.892;10.896;2022-08-01T16:27:55;2.37;;;2.17;;
1935;SDS011;969;49.892;10.896;2022-08-01T16:30:44;5.13;;;2.10;;
1935;SDS011;969;49.892;10.896;2022-08-01T16:37:01;2.20;;;2.00;;
1935;SDS011;969;49.892;10.896;2022-08-01T16:43:14;2.23;;;1.97;;
1935;SDS011;969;49.892;10.896;2022-08-01T16:46:00;3.43;;;2.17;;
1935;SDS011;969;49.892;10.896;2022-08-01T16:48:48;2.17;;;1.97;;
1935;SDS011;969;49.892;10.896;2022-08-01T16:51:20;3.07;;;1.77;;
1935;SDS011;969;49.892;10.896;2022-08-01T16:57:16;2.53;;;1.97;;
1935;SDS011;969;49.892;10.896;2022-08-01T17:03:42;1.93;;;1.73;;
1935;SDS011;969;49.892;10.896;2022-08-01T17:06:14;2.27;;;2.07;;
1935;SDS011;969;49.892;10.896;2022-08-01T17:08:44;2.30;;;2.10;;
1935;SDS011;969;49.892;10.896;2022-08-01T17:11:24;2.30;;;2.10;;
1935;SDS011;969;49.892;10.896;2022-08-01T17:14:12;2.57;;;2.37;;
1935;SDS011;969;49.892;10.896;2022-08-01T17:16:53;2.40;;;2.10;;
1935;SDS011;969;49.892;10.896;2022-08-01T17:19:22;2.50;;;2.30;;
1935;SDS011;969;49.892;10.896;2022-08-01T17:21:51;2.43;;;1.90;;
1935;SDS011;969;49.892;10.896;2022-08-01T17:24:22;1.90;;;1.80;;
1935;SDS011;969;49.892;10.896;2022-08-01T17:26:59;2.23;;;2.03;;
1935;SDS011;969;49.892;10.896;2022-08-01T17:29:33;2.30;;;2.10;;
1935;SDS011;969;49.892;10.896;2022-08-01T17:32:09;2.70;;;2.10;;
1935;SDS011;969;49.892;10.896;2022-08-01T17:34:42;2.90;;;2.00;;
1935;SDS011;969;49.892;10.896;2022-08-01T17:37:09;2.23;;;2.03;;
1935;SDS011;969;49.892;10.896;2022-08-01T17:39:41;2.60;;;2.40;;
1935;SDS011;969;49.892;10.896;2022-08-01T17:42:09;2.70;;;2.30;;
1935;SDS011;969;49.892;10.896;2022-08-01T17:44:45;2.30;;;2.10;;
1935;SDS011;969;49.892;10.896;2022-08-01T17:47:15;2.70;;;2.17;;
1935;SDS011;969;49.892;10.896;2022-08-01T17:49:53;2.00;;;1.80;;
1935;SDS011;969;49.892;10.896;2022-08-01T17:52:27;2.30;;;2.10;;
1935;SDS011;969;49.892;10.896;2022-08-01T17:54:54;2.53;;;2.33;;
1935;SDS011;969;49.892;10.896;2022-08-01T17:57:27;2.70;;;2.20;;
1935;SDS011;969;49.892;10.896;2022-08-01T18:00:02;2.40;;;2.20;;
1935;SDS011;969;49.892;10.896;2022-08-01T18:02:31;2.53;;;2.33;;
1935;SDS011;969;49.892;10.896;2022-08-01T18:05:15;2.17;;;1.97;;
1935;SDS011;969;49.892;10.896;2022-08-01T18:08:08;2.23;;;2.03;;
1935;SDS011;969;49.892;10.896;2022-08-01T18:10:40;3.00;;;2.50;;
1935;SDS011;969;49.892;10.896;2022-08-01T18:13:09;2.90;;;2.50;;
1935;SDS011;969;49.892;10.896;2022-08-01T18:16:07;2.30;;;2.10;;
1935;SDS011;969;49.892;10.896;2022-08-01T18:18:56;2.30;;;2.10;;
1935;SDS011;969;49.892;10.896;2022-08-01T18:25:18;4.73;;;2.17;;
1935;SDS011;969;49.892;10.896;2022-08-01T18:28:00;2.50;;;2.30;;
1935;SDS011;969;49.892;10.896;2022-08-01T18:30:53;2.23;;;2.03;;
1935;SDS011;969;49.892;10.896;2022-08-01T18:33:27;2.30;;;1.97;;
1935;SDS011;969;49.892;10.896;2022-08-01T18:39:42;2.30;;;2.10;;
1935;SDS011;969;49.892;10.896;2022-08-01T18:42:39;2.37;;;2.17;;
1935;SDS011;969;49.892;10.896;2022-08-01T18:49:04;3.33;;;2.00;;
1935;SDS011;969;49.892;10.896;2022-08-01T18:51:39;2.20;;;2.00;;
1935;SDS011;969;49.892;10.896;2022-08-01T18:54:41;2.37;;;2.17;;
1935;SDS011;969;49.892;10.896;2022-08-01T18:57:20;2.90;;;2.37;;
1935;SDS011;969;49.892;10.896;2022-08-01T18:59:59;2.40;;;2.20;;
1935;SDS011;969;49.892;10.896;2022-08-01T19:02:40;2.40;;;2.20;;